Home > Products > Valid Products > TAF

000
FTUS43 KILX 300120 AAA
TAFCMI
TAF AMD
KCMI 300120Z 3001/3024 05010KT P6SM SCT030
      TEMPO 3002/3006 BKN030
     FM300700 07012KT P6SM OVC070
     FM301200 09014KT 4SM -RA OVC008
     FM301500 11015G24KT 2SM -RA BR VCTS OVC008CB=



000
FTUS43 KILX 300120 AAA
TAFCMI
TAF AMD
KCMI 300120Z 3001/3024 05010KT P6SM SCT030
      TEMPO 3002/3006 BKN030
     FM300700 07012KT P6SM OVC070
     FM301200 09014KT 4SM -RA OVC008
     FM301500 11015G24KT 2SM -RA BR VCTS OVC008CB=



000
FTUS43 KILX 300119 AAA
TAFSPI
TAF AMD
KSPI 300119Z 3001/3024 05010KT P6SM SCT030
      TEMPO 3002/3005 BKN030
     FM300500 09012KT P6SM OVC070
     FM300900 10014KT 4SM -RA OVC008
     FM301200 13015G24KT 2SM -RA BR VCTS OVC008CB
     FM302200 10012KT 5SM -SHRA VCTS BKN015CB=



000
FTUS43 KILX 300119 AAA
TAFDEC
TAF AMD
KDEC 300119Z 3001/3024 06011KT P6SM SCT030
     FM300500 09012KT P6SM OVC070
     FM301000 10014KT 4SM -RA OVC008
     FM301300 13015G24KT 2SM -RA BR VCTS OVC008CB
     FM302200 13012KT 5SM -SHRA VCTS BKN015CB=



000
FTUS43 KILX 300119 AAA
TAFDEC
TAF AMD
KDEC 300119Z 3001/3024 06011KT P6SM SCT030
     FM300500 09012KT P6SM OVC070
     FM301000 10014KT 4SM -RA OVC008
     FM301300 13015G24KT 2SM -RA BR VCTS OVC008CB
     FM302200 13012KT 5SM -SHRA VCTS BKN015CB=



000
FTUS43 KILX 300117 AAA
TAFPIA
TAF AMD
KPIA 300117Z 3001/3024 06011KT P6SM OVC035
      TEMPO 3003/3006 OVC030
     FM300700 07012KT P6SM OVC070
     FM301200 09014KT 4SM -RA OVC008
     FM301500 09015G24KT 2SM -RA BR VCTS OVC006CB=



000
FTUS43 KILX 300117 AAA
TAFPIA
TAF AMD
KPIA 300117Z 3001/3024 06011KT P6SM OVC035
      TEMPO 3003/3006 OVC030
     FM300700 07012KT P6SM OVC070
     FM301200 09014KT 4SM -RA OVC008
     FM301500 09015G24KT 2SM -RA BR VCTS OVC006CB=



000
FTUS43 KILX 292328
TAFCMI
TAF
KCMI 292328Z 3000/3024 04008KT P6SM OVC030
      TEMPO 3003/3007 SCT030 OVC070
     FM300700 07012KT P6SM OVC070
     FM301200 09014KT 4SM -RA OVC008
     FM301500 11015G24KT 2SM -RA BR VCTS OVC008CB=



000
FTUS43 KILX 292328
TAFSPI
TAF
KSPI 292328Z 3000/3024 05008KT P6SM OVC030
      TEMPO 3001/3005 SCT030 OVC070
     FM300500 09012KT P6SM OVC070
     FM300900 10014KT 4SM -RA OVC008
     FM301200 13015G24KT 2SM -RA BR VCTS OVC008CB
     FM302200 10012KT 5SM -SHRA VCTS BKN015CB=



000
FTUS43 KILX 292328
TAFDEC
TAF
KDEC 292328Z 3000/3024 06008KT P6SM OVC030
      TEMPO 3001/3005 SCT030 OVC070
     FM300500 09012KT P6SM OVC070
     FM301000 10014KT 4SM -RA OVC008
     FM301300 13015G24KT 2SM -RA BR VCTS OVC008CB
     FM302200 13012KT 5SM -SHRA VCTS BKN015CB=



000
FTUS43 KILX 292328
TAFBMI
TAF
KBMI 292328Z 3000/3024 05008KT P6SM OVC025
      TEMPO 3003/3007 SCT025 OVC070
     FM300700 07012KT P6SM OVC070
     FM301200 09014KT 4SM -RA OVC008
     FM301500 09015G24KT 2SM -RA BR VCTS OVC006CB=



000
FTUS43 KILX 292328
TAFPIA
TAF
KPIA 292328Z 3000/3024 07008KT P6SM OVC030
      TEMPO 3003/3007 SCT030 OVC070
     FM300700 07012KT P6SM OVC070
     FM301200 09014KT 4SM -RA OVC008
     FM301500 09015G24KT 2SM -RA BR VCTS OVC006CB=



000
FTUS43 KILX 292206 AAA
TAFCMI
TAF AMD
KCMI 292206Z 2922/3018 07006KT P6SM SCT025 BKN250
      TEMPO 2922/2924 BKN025
     FM300700 07012KT P6SM OVC070
     FM301200 09014KT 4SM -RA OVC008
     FM301500 11014G24KT 2SM -RA BR VCTS OVC008CB=



000
FTUS43 KILX 292206 AAA
TAFCMI
TAF AMD
KCMI 292206Z 2922/3018 07006KT P6SM SCT025 BKN250
      TEMPO 2922/2924 BKN025
     FM300700 07012KT P6SM OVC070
     FM301200 09014KT 4SM -RA OVC008
     FM301500 11014G24KT 2SM -RA BR VCTS OVC008CB=



000
FTUS43 KILX 292205 AAB
TAFDEC
TAF AMD
KDEC 292205Z 2922/3018 06008KT P6SM BKN025
     FM292300 07008KT P6SM SCT025 BKN250
     FM300500 09012KT P6SM OVC070
     FM301000 10014KT 4SM -RA OVC008
     FM301300 13014G24KT 2SM -RA BR VCTS OVC008CB=



000
FTUS43 KILX 292040 AAA
TAFDEC
TAF AMD
KDEC 292040Z 2921/3018 06008KT P6SM BKN025
     FM292200 07008KT P6SM SCT025 BKN250
     FM300500 09012KT P6SM OVC070
     FM301000 10014KT 4SM -RA OVC008
     FM301300 13014G24KT 2SM -RA BR VCTS OVC008CB=



000
FTUS43 KILX 292039 AAA
TAFSPI
TAF AMD
KSPI 292039Z 2921/3018 06008KT P6SM BKN025
     FM292300 07008KT P6SM SCT025 BKN250
     FM300500 09012KT P6SM OVC070
     FM300900 10014KT 4SM -RA OVC008
     FM301200 13014G24KT 2SM -RA BR VCTS OVC008CB=



000
FTUS43 KILX 292038 AAA
TAFBMI
TAF AMD
KBMI 292038Z 2921/3018 07008KT P6SM BKN025
     FM292300 07008KT P6SM SCT025 BKN250
     FM300700 07012KT P6SM OVC070
     FM301200 09014KT 4SM -RA OVC008
     FM301500 11014G24KT 2SM -RA BR VCTS OVC008CB=



000
FTUS43 KILX 292037 AAA
TAFPIA
TAF AMD
KPIA 292037Z 2921/3018 07008KT P6SM BKN025
     FM300000 07008KT P6SM SCT025 BKN250
     FM300700 07012KT P6SM OVC070
     FM301200 09014KT 4SM -RA OVC008
     FM301500 11014G24KT 2SM -RA BR VCTS OVC008CB=



000
FTUS43 KILX 292037 AAA
TAFPIA
TAF AMD
KPIA 292037Z 2921/3018 07008KT P6SM BKN025
     FM300000 07008KT P6SM SCT025 BKN250
     FM300700 07012KT P6SM OVC070
     FM301200 09014KT 4SM -RA OVC008
     FM301500 11014G24KT 2SM -RA BR VCTS OVC008CB=



000
FTUS43 KILX 291734
TAFDEC
TAF
KDEC 291734Z 2918/3018 07006KT P6SM BKN015
     FM292100 09008KT P6SM SCT025 BKN250
     FM300500 09012KT P6SM OVC070
     FM301000 10014KT 4SM -RA OVC008
     FM301300 13014G24KT 2SM -RA BR VCTS OVC008CB=



000
FTUS43 KILX 291734
TAFCMI
TAF
KCMI 291734Z 2918/3018 05008KT P6SM BKN025
     FM292100 07008KT P6SM SCT025 BKN250
     FM300700 07012KT P6SM OVC070
     FM301200 09014KT 4SM -RA OVC008
     FM301500 11014G24KT 2SM -RA BR VCTS OVC008CB=



000
FTUS43 KILX 291734
TAFPIA
TAF
KPIA 291734Z 2918/3018 03008KT P6SM BKN025
     FM292100 07008KT P6SM SCT025 BKN250
     FM300700 07012KT P6SM OVC070
     FM301200 09014KT 4SM -RA OVC008
     FM301500 11014G24KT 2SM -RA BR VCTS OVC008CB=



000
FTUS43 KILX 291734
TAFBMI
TAF
KBMI 291734Z 2918/3018 03008KT P6SM BKN015
     FM292000 05008KT P6SM BKN025
     FM292200 07008KT P6SM SCT025 BKN250
     FM300700 07012KT P6SM OVC070
     FM301200 09014KT 4SM -RA OVC008
     FM301500 11014G24KT 2SM -RA BR VCTS OVC008CB=



000
FTUS43 KILX 291734
TAFSPI
TAF
KSPI 291734Z 2918/3018 07008KT P6SM BKN025
     FM292100 09008KT P6SM SCT025 BKN250
     FM300500 09012KT P6SM OVC070
     FM300900 10014KT 4SM -RA OVC008
     FM301200 13014G24KT 2SM -RA BR VCTS OVC008CB=



000
FTUS43 KILX 291403 AAB
TAFSPI
TAF AMD
KSPI 291403Z 2914/3012 03008KT P6SM BKN015
     FM291800 08008KT P6SM SCT050
     FM300200 09013KT P6SM VCSH BKN035
     FM300900 10014KT 4SM -SHRA OVC025=



000
FTUS43 KILX 291403 AAB
TAFSPI
TAF AMD
KSPI 291403Z 2914/3012 03008KT P6SM BKN015
     FM291800 08008KT P6SM SCT050
     FM300200 09013KT P6SM VCSH BKN035
     FM300900 10014KT 4SM -SHRA OVC025=



000
FTUS43 KILX 291324 AAA
TAFCMI
TAF AMD
KCMI 291324Z 2913/3012 36005KT 3SM BR BKN008
     FM291400 36007KT 5SM BR BKN008
     FM291500 02007KT P6SM BKN015
     FM291800 06008KT P6SM SCT050
     FM300400 07013KT P6SM VCSH BKN035=



000
FTUS43 KILX 291324 AAA
TAFCMI
TAF AMD
KCMI 291324Z 2913/3012 36005KT 3SM BR BKN008
     FM291400 36007KT 5SM BR BKN008
     FM291500 02007KT P6SM BKN015
     FM291800 06008KT P6SM SCT050
     FM300400 07013KT P6SM VCSH BKN035=



000
FTUS43 KILX 291322 AAA
TAFPIA
TAF AMD
KPIA 291322Z 2913/3012 03006KT 5SM BR OVC008
     FM291400 03006KT P6SM BKN015
     FM291600 03005KT P6SM BKN015
     FM291800 07006KT P6SM BKN100
     FM300400 08013KT P6SM VCSH BKN100=



000
FTUS43 KILX 291322 AAA
TAFPIA
TAF AMD
KPIA 291322Z 2913/3012 03006KT 5SM BR OVC008
     FM291400 03006KT P6SM BKN015
     FM291600 03005KT P6SM BKN015
     FM291800 07006KT P6SM BKN100
     FM300400 08013KT P6SM VCSH BKN100=



000
FTUS43 KILX 291320 AAA
TAFSPI
TAF AMD
KSPI 291320Z 2913/3012 03008KT P6SM BKN008
     FM291500 05008KT P6SM BKN015
     FM291800 08008KT P6SM SCT050
     FM300200 09013KT P6SM VCSH BKN035
     FM300900 10014KT 4SM -SHRA OVC025=



000
FTUS43 KILX 291320 AAA
TAFSPI
TAF AMD
KSPI 291320Z 2913/3012 03008KT P6SM BKN008
     FM291500 05008KT P6SM BKN015
     FM291800 08008KT P6SM SCT050
     FM300200 09013KT P6SM VCSH BKN035
     FM300900 10014KT 4SM -SHRA OVC025=



000
FTUS43 KILX 291316 AAA
TAFBMI
TAF AMD
KBMI 291316Z 2913/3012 35008KT 2SM BR OVC006
     FM291400 36008KT 4SM BR OVC008
     FM291600 04009KT P6SM BKN015
     FM291800 08008KT P6SM BKN100
     FM300400 08013KT P6SM VCSH BKN100=



000
FTUS43 KILX 291316 AAA
TAFBMI
TAF AMD
KBMI 291316Z 2913/3012 35008KT 2SM BR OVC006
     FM291400 36008KT 4SM BR OVC008
     FM291600 04009KT P6SM BKN015
     FM291800 08008KT P6SM BKN100
     FM300400 08013KT P6SM VCSH BKN100=



000
FTUS43 KILX 291133
TAFDEC
TAF
KDEC 291133Z 2912/3012 VRB04KT P6SM SCT006 BKN250
     FM291300 VRB05KT 6SM BR BKN015
     FM291800 08008KT P6SM SCT050
     FM300200 09013KT P6SM VCSH BKN035
     FM301000 10014KT 4SM -SHRA OVC025=



000
FTUS43 KILX 291133
TAFBMI
TAF
KBMI 291133Z 2912/3012 VRB06KT 2SM BR OVC006
      TEMPO 2912/2914 1/4SM FG OVC001
     FM291600 04009KT P6SM BKN015
     FM291800 08008KT P6SM BKN100
     FM300400 08013KT P6SM VCSH BKN100=



000
FTUS43 KILX 291133
TAFSPI
TAF
KSPI 291133Z 2912/3012 VRB04KT P6SM SCT006 BKN250
     FM291300 VRB05KT 6SM BR BKN015
     FM291800 08008KT P6SM SCT050
     FM300200 09013KT P6SM VCSH BKN035
     FM300900 10014KT 4SM -SHRA OVC025=



000
FTUS43 KILX 291133
TAFPIA
TAF
KPIA 291133Z 2912/3012 03006KT 2SM BR OVC005
     FM291600 03005KT P6SM BKN015
     FM291800 07006KT P6SM BKN100
     FM300400 08013KT P6SM VCSH BKN100=



000
FTUS43 KILX 291133
TAFPIA
TAF
KPIA 291133Z 2912/3012 03006KT 2SM BR OVC005
     FM291600 03005KT P6SM BKN015
     FM291800 07006KT P6SM BKN100
     FM300400 08013KT P6SM VCSH BKN100=



000
FTUS43 KILX 291133
TAFCMI
TAF
KCMI 291133Z 2912/3012 VRB04KT P6SM SCT006 BKN250
     FM291300 VRB06KT 6SM BR BKN015
     FM291800 06008KT P6SM SCT050
     FM300400 07013KT P6SM VCSH BKN035=



000
FTUS43 KILX 291133
TAFBMI
TAF
KBMI 291133Z 2912/3012 VRB06KT 2SM BR OVC006
      TEMPO 2912/2914 1/4SM FG OVC001
     FM291600 04009KT P6SM BKN015
     FM291800 08008KT P6SM BKN100
     FM300400 08013KT P6SM VCSH BKN100=



000
FTUS43 KILX 291133
TAFDEC
TAF
KDEC 291133Z 2912/3012 VRB04KT P6SM SCT006 BKN250
     FM291300 VRB05KT 6SM BR BKN015
     FM291800 08008KT P6SM SCT050
     FM300200 09013KT P6SM VCSH BKN035
     FM301000 10014KT 4SM -SHRA OVC025=



000
FTUS43 KILX 291133
TAFSPI
TAF
KSPI 291133Z 2912/3012 VRB04KT P6SM SCT006 BKN250
     FM291300 VRB05KT 6SM BR BKN015
     FM291800 08008KT P6SM SCT050
     FM300200 09013KT P6SM VCSH BKN035
     FM300900 10014KT 4SM -SHRA OVC025=



000
FTUS43 KILX 291133
TAFCMI
TAF
KCMI 291133Z 2912/3012 VRB04KT P6SM SCT006 BKN250
     FM291300 VRB06KT 6SM BR BKN015
     FM291800 06008KT P6SM SCT050
     FM300400 07013KT P6SM VCSH BKN035=



000
FTUS43 KILX 291049 AAA
TAFBMI
TAF AMD
KBMI 291049Z 2911/3006 34007KT 3SM BR OVC010
      TEMPO 2911/2913 1/4SM FG OVC001
     FM291400 02009KT 6SM HZ BKN025
     FM292100 09008KT P6SM BKN250
     FM300400 08013KT P6SM BKN100=



000
FTUS43 KILX 290520
TAFPIA
TAF
KPIA 290520Z 2906/3006 VRB03KT P6SM FEW035 OVC060
     FM290800 34003KT 6SM BR BKN025
     FM291000 34003KT 3SM BR OVC008
     FM291500 03005KT 6SM HZ BKN015
     FM292100 07006KT P6SM BKN100
     FM300400 08013KT P6SM BKN100=



000
FTUS43 KILX 290520
TAFSPI
TAF
KSPI 290520Z 2906/3006 30004KT P6SM FEW035 OVC050
     FM291200 35006KT 6SM BR BKN015
     FM291500 06007KT P6SM SCT015 BKN050
     FM291800 11008KT P6SM SCT050
     FM300200 10013KT P6SM VCSH BKN045=



000
FTUS43 KILX 290520
TAFDEC
TAF
KDEC 290520Z 2906/3006 30005KT P6SM SCT040
     FM291200 31006KT 4SM BR BKN015
     FM291500 03007KT P6SM SCT015 BKN050
     FM292100 10008KT P6SM BKN250
     FM300300 09010KT P6SM VCSH BKN045=



000
FTUS43 KILX 290520
TAFCMI
TAF
KCMI 290520Z 2906/3006 32007KT P6SM OVC045
     FM290800 31007KT 6SM BR OVC025
     FM291000 30005KT 3SM BR OVC010
     FM291500 02008KT 6SM HZ BKN025
     FM292100 07008KT P6SM BKN250
     FM300300 08010KT P6SM BKN100=



000
FTUS43 KILX 290520
TAFBMI
TAF
KBMI 290520Z 2906/3006 27005KT P6SM OVC040
     FM291000 34007KT 3SM BR OVC010
     FM291400 02009KT 6SM HZ BKN025
     FM292100 09008KT P6SM BKN250
     FM300400 08013KT P6SM BKN100=



000
FTUS43 KILX 290234 AAA
TAFBMI
TAF AMD
KBMI 290234Z 2903/2924 28008KT P6SM OVC045
     FM290600 32006KT 6SM BR OVC020
     FM290800 34007KT 3SM BR OVC006
     FM291500 02009KT 6SM HZ BKN015
     FM292100 09008KT P6SM BKN250=



000
FTUS43 KILX 290234 AAA
TAFCMI
TAF AMD
KCMI 290234Z 2903/2924 31008KT P6SM BKN045
     FM290700 33007KT 6SM BR OVC025
     FM290900 34006KT 4SM BR OVC010
     FM291500 01008KT 6SM HZ BKN015
     FM292100 05008KT P6SM BKN250=



000
FTUS43 KILX 290234 AAA
TAFBMI
TAF AMD
KBMI 290234Z 2903/2924 28008KT P6SM OVC045
     FM290600 32006KT 6SM BR OVC020
     FM290800 34007KT 3SM BR OVC006
     FM291500 02009KT 6SM HZ BKN015
     FM292100 09008KT P6SM BKN250=



000
FTUS43 KILX 290233 AAA
TAFPIA
TAF AMD
KPIA 290233Z 2903/2924 30003KT P6SM OVC045
     FM290600 34003KT 6SM BR BKN025
     FM290800 34003KT 3SM BR OVC008
     FM291500 03005KT 6SM HZ BKN015
     FM292100 10006KT P6SM BKN100=



000
FTUS43 KILX 290233 AAA
TAFPIA
TAF AMD
KPIA 290233Z 2903/2924 30003KT P6SM OVC045
     FM290600 34003KT 6SM BR BKN025
     FM290800 34003KT 3SM BR OVC008
     FM291500 03005KT 6SM HZ BKN015
     FM292100 10006KT P6SM BKN100=



000
FTUS43 KILX 282334
TAFDEC
TAF
KDEC 282334Z 2900/2924 30013KT P6SM BKN050
     FM290200 31006KT P6SM BKN040
     FM291200 32006KT 4SM BR BKN015
     FM291500 01007KT P6SM SCT015 BKN025
     FM292100 10008KT P6SM BKN250=



000
FTUS43 KILX 282334
TAFBMI
TAF
KBMI 282334Z 2900/2924 28016G20KT P6SM BKN045
     FM290200 32006KT 6SM BR OVC020
     FM290700 34007KT 3SM BR OVC006
     FM291500 02009KT 6SM HZ BKN015
     FM292100 09008KT P6SM BKN250=



000
FTUS43 KILX 282334
TAFSPI
TAF
KSPI 282334Z 2900/2924 28011KT P6SM BKN040
     FM290200 29006KT P6SM BKN040
     FM291200 32006KT 4SM BR BKN015
     FM291500 01007KT P6SM SCT015 BKN025
     FM292100 11008KT P6SM BKN250=



000
FTUS43 KILX 282334
TAFCMI
TAF
KCMI 282334Z 2900/2924 28015KT P6SM BKN045 OVC060
     FM290200 29007KT 6SM BR OVC025
     FM290900 32006KT 4SM BR OVC010
     FM291500 01008KT 6SM HZ BKN015
     FM292100 05008KT P6SM BKN250=



000
FTUS43 KILX 282334
TAFPIA
TAF
KPIA 282334Z 2900/2924 29007KT P6SM OVC045
     FM290200 34003KT 6SM BR BKN025
     FM290700 34003KT 3SM BR OVC008
     FM291500 03005KT 6SM HZ BKN015
     FM292100 10006KT P6SM BKN100=



000
FTUS43 KILX 281905 AAA
TAFCMI
TAF AMD
KCMI 281905Z 2819/2918 29010KT P6SM SCT025 BKN050
      TEMPO 2819/2820 BKN025
     FM282100 28012KT P6SM SCT035 BKN060
      TEMPO 2821/2824 BKN030
     FM290200 29007KT 6SM BR OVC025
     FM290700 32006KT 4SM BR OVC010
     FM291500 01008KT 6SM HZ BKN015=



000
FTUS43 KILX 281905 AAA
TAFCMI
TAF AMD
KCMI 281905Z 2819/2918 29010KT P6SM SCT025 BKN050
      TEMPO 2819/2820 BKN025
     FM282100 28012KT P6SM SCT035 BKN060
      TEMPO 2821/2824 BKN030
     FM290200 29007KT 6SM BR OVC025
     FM290700 32006KT 4SM BR OVC010
     FM291500 01008KT 6SM HZ BKN015=



000
FTUS43 KILX 281904 AAA
TAFDEC
TAF AMD
KDEC 281904Z 2819/2918 26012KT P6SM SCT030 BKN060
      TEMPO 2819/2823 BKN030
     FM282300 28009KT P6SM SCT035 BKN060
     FM290200 31006KT P6SM BKN030
     FM290700 32006KT 4SM BR BKN015
     FM291500 01007KT P6SM SCT015 BKN025=



000
FTUS43 KILX 281903 AAA
TAFBMI
TAF AMD
KBMI 281903Z 2819/2918 VRB06KT P6SM SCT015 BKN035
      TEMPO 2819/2820 SCT015 BKN025
     FM282000 27010KT P6SM SCT025 BKN035
      TEMPO 2820/2823 BKN025
     FM290200 32006KT 6SM BR OVC020
     FM290700 34007KT 3SM BR OVC008
     FM291500 02009KT 6SM HZ BKN015=



000
FTUS43 KILX 281902 AAA
TAFPIA
TAF AMD
KPIA 281902Z 2819/2918 VRB06KT P6SM SCT025 BKN050
      TEMPO 2819/2820 BKN025
     FM282000 26010KT P6SM SCT030 BKN060
      TEMPO 2820/2823 BKN030
     FM290200 34003KT 6SM BR BKN025
     FM290700 34003KT 3SM BR OVC010
     FM291500 03005KT 6SM HZ BKN015=



000
FTUS43 KILX 281900 AAA
TAFSPI
TAF AMD
KSPI 281900Z 2819/2918 27015KT P6SM SCT035 BKN045
      TEMPO 2819/2822 BKN030
     FM282200 27010KT P6SM SCT040 BKN060
     FM290200 29006KT P6SM BKN030
     FM290700 32006KT 4SM BR BKN015
     FM291500 01007KT P6SM SCT015 BKN025=



000
FTUS43 KILX 281900 AAA
TAFSPI
TAF AMD
KSPI 281900Z 2819/2918 27015KT P6SM SCT035 BKN045
      TEMPO 2819/2822 BKN030
     FM282200 27010KT P6SM SCT040 BKN060
     FM290200 29006KT P6SM BKN030
     FM290700 32006KT 4SM BR BKN015
     FM291500 01007KT P6SM SCT015 BKN025=



000
FTUS43 KILX 281742
TAFSPI
TAF
KSPI 281742Z 2818/2918 27011KT P6SM SCT030 BKN050
      TEMPO 2818/2821 BKN030
     FM282100 27010KT P6SM SCT035 BKN060
     FM290200 29006KT P6SM BKN030
     FM290700 32006KT 4SM BR BKN015
     FM291500 01007KT P6SM SCT015 BKN025=



000
FTUS43 KILX 281742
TAFDEC
TAF
KDEC 281742Z 2818/2918 27010KT P6SM SCT025 BKN050
      TEMPO 2818/2822 BKN025
     FM282200 28009KT P6SM SCT035 BKN060
     FM290200 31006KT P6SM BKN030
     FM290700 32006KT 4SM BR BKN015
     FM291500 01007KT P6SM SCT015 BKN025=



000
FTUS43 KILX 281742
TAFCMI
TAF
KCMI 281742Z 2818/2918 29010KT P6SM SCT015 BKN045
      TEMPO 2818/2820 BKN025
     FM282000 28010KT P6SM SCT025 BKN050
      TEMPO 2820/2823 BKN030
     FM290200 29007KT 6SM BR OVC025
     FM290700 32006KT 4SM BR OVC010
     FM291500 01008KT 6SM HZ BKN015=



000
FTUS43 KILX 281742
TAFPIA
TAF
KPIA 281742Z 2818/2918 VRB06KT P6SM SCT025 BKN050
      TEMPO 2818/2819 5SM HZ BKN025
     FM281900 29007KT P6SM SCT025 BKN050
      TEMPO 2819/2823 BKN030
     FM290200 34003KT 6SM BR BKN025
     FM290700 34003KT 3SM BR OVC010
     FM291500 03005KT 6SM HZ BKN015=



000
FTUS43 KILX 281742
TAFBMI
TAF
KBMI 281742Z 2818/2918 VRB06KT P6SM BKN015
      TEMPO 2818/2819 SCT015 BKN025
     FM281900 29009KT P6SM SCT025 BKN035
      TEMPO 2819/2823 BKN025
     FM290200 32006KT 6SM BR OVC020
     FM290700 34007KT 3SM BR OVC008
     FM291500 02009KT 6SM HZ BKN015=



000
FTUS43 KILX 281713 AAB
TAFPIA
TAF AMD
KPIA 281713Z 2817/2912 VRB06KT P6SM SCT015 BKN050
      TEMPO 2817/2819 5SM HZ BKN025
     FM281900 27007KT P6SM BKN035
     FM290300 29003KT P6SM BKN025=



000
FTUS43 KILX 281713 AAB
TAFPIA
TAF AMD
KPIA 281713Z 2817/2912 VRB06KT P6SM SCT015 BKN050
      TEMPO 2817/2819 5SM HZ BKN025
     FM281900 27007KT P6SM BKN035
     FM290300 29003KT P6SM BKN025=



000
FTUS43 KILX 281711 AAC
TAFSPI
TAF AMD
KSPI 281711Z 2817/2912 27011KT P6SM SCT025 BKN050
      TEMPO 2817/2819 BKN030
     FM281900 27010KT P6SM BKN040
     FM290100 27006KT P6SM BKN035=



000
FTUS43 KILX 281707 AAB
TAFBMI
TAF AMD
KBMI 281707Z 2817/2912 VRB06KT 6SM BR BKN015
      TEMPO 2817/2819 BKN020
     FM281900 28007KT P6SM BKN025
     FM290200 29006KT P6SM SCT006 OVC015=



000
FTUS43 KILX 281707 AAB
TAFBMI
TAF AMD
KBMI 281707Z 2817/2912 VRB06KT 6SM BR BKN015
      TEMPO 2817/2819 BKN020
     FM281900 28007KT P6SM BKN025
     FM290200 29006KT P6SM SCT006 OVC015=



000
FTUS43 KILX 281617 AAC
TAFDEC
TAF AMD
KDEC 281617Z 2816/2912 25010KT P6SM SCT015
      TEMPO 2816/2818 SCT015 BKN025
     FM281800 27010KT P6SM BKN040
     FM290200 27006KT P6SM BKN035=



000
FTUS43 KILX 281616 AAB
TAFSPI
TAF AMD
KSPI 281616Z 2816/2912 25009KT P6SM SCT025 BKN035
      TEMPO 2816/2818 BKN025
     FM281800 27010KT P6SM BKN040
     FM290100 27006KT P6SM BKN035=



000
FTUS43 KILX 281616 AAA
TAFPIA
TAF AMD
KPIA 281616Z 2816/2912 29005KT P6SM BKN012
      TEMPO 2816/2818 5SM HZ SCT010 BKN020
     FM281800 27007KT P6SM BKN035
     FM290300 29003KT P6SM BKN025=



000
FTUS43 KILX 281615 AAB
TAFCMI
TAF AMD
KCMI 281615Z 2816/2912 25009KT P6SM BKN010
      TEMPO 2816/2818 SCT010 BKN020
     FM281800 27010KT P6SM BKN035
     FM290300 27005KT 6SM BR OVC035=



000
FTUS43 KILX 281614 AAA
TAFBMI
TAF AMD
KBMI 281614Z 2816/2912 VRB06KT 6SM BR BKN004 OVC012
      TEMPO 2816/2818 5SM BR SCT005 BKN012
     FM281800 28007KT P6SM BKN025
     FM290200 29006KT P6SM SCT006 OVC015=



000
FTUS43 KILX 281506 AAB
TAFDEC
TAF AMD
KDEC 281506Z 2815/2912 25008KT P6SM SCT009 BKN045
      TEMPO 2815/2816 4SM BR BKN009
     FM281600 27009KT P6SM SCT015
     FM281800 27010KT P6SM BKN040
     FM290200 27006KT P6SM BKN035=



000
FTUS43 KILX 281421 AAA
TAFDEC
TAF AMD
KDEC 281421Z 2814/2912 23007KT P6SM SCT006 BKN045
      TEMPO 2814/2816 4SM BR BKN006
     FM281600 27009KT P6SM SCT010
     FM281800 27010KT P6SM BKN040
     FM290200 27006KT P6SM BKN035=



000
FTUS43 KILX 281243 AAA
TAFCMI
TAF AMD
KCMI 281243Z 2813/2912 13006KT P6SM SCT004
      TEMPO 2813/2815 3SM BR BKN004
     FM281500 27009KT 6SM BR SCT006 BKN025
     FM281800 27010KT P6SM BKN035
     FM290300 27005KT 6SM BR OVC035=



000
FTUS43 KILX 281242 AAA
TAFSPI
TAF AMD
KSPI 281242Z 2813/2912 23004KT 6SM BR SCT045
      TEMPO 2813/2815 3SM BR SCT004
     FM281500 27009KT P6SM SCT010
     FM281800 27010KT P6SM BKN040
     FM290100 27006KT P6SM BKN035=



000
FTUS43 KILX 281130
TAFSPI
TAF
KSPI 281130Z 2812/2912 23004KT 1 1/2SM BR SCT004
      TEMPO 2812/2815 1/2SM FG VV002
     FM281500 27009KT P6SM SCT010
     FM281800 27010KT P6SM BKN040
     FM290100 27006KT P6SM BKN035=



000
FTUS43 KILX 281130
TAFCMI
TAF
KCMI 281130Z 2812/2912 13006KT 4SM BR SCT004
      TEMPO 2812/2815 3/4SM BR BKN004
     FM281500 27009KT 6SM BR SCT006 BKN025
     FM281800 27010KT P6SM BKN035
     FM290300 27005KT 6SM BR OVC035=



000
FTUS43 KILX 281130
TAFBMI
TAF
KBMI 281130Z 2812/2912 09008KT 3SM BR SCT004
      TEMPO 2812/2815 1SM BR BKN004
     FM281500 30008KT 6SM BR BKN006 OVC015
     FM281800 28007KT P6SM BKN025
     FM290200 29006KT P6SM SCT006 OVC015=



000
FTUS43 KILX 281130
TAFDEC
TAF
KDEC 281130Z 2812/2912 23004KT 4SM BR SCT004
      TEMPO 2812/2815 1 1/2SM BR BKN004
     FM281500 27009KT P6SM SCT010
     FM281800 27010KT P6SM BKN040
     FM290200 27006KT P6SM BKN035=



000
FTUS43 KILX 281130
TAFPIA
TAF
KPIA 281130Z 2812/2912 12005KT 5SM BR SCT004 BKN035
      TEMPO 2812/2815 2SM BR OVC004
     FM281500 29005KT 6SM BR OVC012
     FM281800 27007KT P6SM BKN035
     FM290300 29003KT P6SM BKN025=



000
FTUS43 KILX 281130
TAFSPI
TAF
KSPI 281130Z 2812/2912 23004KT 1 1/2SM BR SCT004
      TEMPO 2812/2815 1/2SM FG VV002
     FM281500 27009KT P6SM SCT010
     FM281800 27010KT P6SM BKN040
     FM290100 27006KT P6SM BKN035=



000
FTUS43 KILX 281130
TAFCMI
TAF
KCMI 281130Z 2812/2912 13006KT 4SM BR SCT004
      TEMPO 2812/2815 3/4SM BR BKN004
     FM281500 27009KT 6SM BR SCT006 BKN025
     FM281800 27010KT P6SM BKN035
     FM290300 27005KT 6SM BR OVC035=



000
FTUS43 KILX 281130
TAFBMI
TAF
KBMI 281130Z 2812/2912 09008KT 3SM BR SCT004
      TEMPO 2812/2815 1SM BR BKN004
     FM281500 30008KT 6SM BR BKN006 OVC015
     FM281800 28007KT P6SM BKN025
     FM290200 29006KT P6SM SCT006 OVC015=



000
FTUS43 KILX 281130
TAFDEC
TAF
KDEC 281130Z 2812/2912 23004KT 4SM BR SCT004
      TEMPO 2812/2815 1 1/2SM BR BKN004
     FM281500 27009KT P6SM SCT010
     FM281800 27010KT P6SM BKN040
     FM290200 27006KT P6SM BKN035=



000
FTUS43 KILX 281107 AAD
TAFDEC
TAF AMD
KDEC 281107Z 2811/2906 23004KT 5SM BR BKN035
     FM281300 27005KT 3SM BR BKN006 OVC015
     FM281500 27009KT P6SM SCT015
     FM281800 27010KT P6SM BKN035=



000
FTUS43 KILX 281107 AAD
TAFDEC
TAF AMD
KDEC 281107Z 2811/2906 23004KT 5SM BR BKN035
     FM281300 27005KT 3SM BR BKN006 OVC015
     FM281500 27009KT P6SM SCT015
     FM281800 27010KT P6SM BKN035=



000
FTUS43 KILX 281106 AAB
TAFSPI
TAF AMD
KSPI 281106Z 2811/2906 23004KT 6SM BR BKN035
     FM281300 27005KT 3SM BR BKN006 OVC015
     FM281500 27009KT P6SM SCT015
     FM281800 27010KT P6SM BKN035=



000
FTUS43 KILX 281106 AAB
TAFSPI
TAF AMD
KSPI 281106Z 2811/2906 23004KT 6SM BR BKN035
     FM281300 27005KT 3SM BR BKN006 OVC015
     FM281500 27009KT P6SM SCT015
     FM281800 27010KT P6SM BKN035=



000
FTUS43 KILX 281013 AAC
TAFBMI
TAF AMD
KBMI 281013Z 2810/2906 09008KT 5SM BR SCT004
      TEMPO 2811/2814 2SM BR BKN004
     FM281500 04010KT 4SM BR OVC007
     FM282100 28007KT P6SM OVC015=



000
FTUS43 KILX 281011 AAB
TAFCMI
TAF AMD
KCMI 281011Z 2810/2906 VRB05KT 2SM BR SCT004
     FM281200 13006KT 3/4SM BR OVC004
     FM281500 27009KT 4SM BR BKN006 OVC012
     FM282000 27012KT P6SM OVC025=



000
FTUS43 KILX 281011 AAB
TAFCMI
TAF AMD
KCMI 281011Z 2810/2906 VRB05KT 2SM BR SCT004
     FM281200 13006KT 3/4SM BR OVC004
     FM281500 27009KT 4SM BR BKN006 OVC012
     FM282000 27012KT P6SM OVC025=



000
FTUS43 KILX 280909 AAA
TAFSPI
TAF AMD
KSPI 280909Z 2809/2906 12005KT 6SM BR SCT040
     FM281100 23004KT 3SM BR BKN006 OVC012
     FM281500 27009KT 6SM BR BKN020
     FM282100 27010KT P6SM BKN045=



000
FTUS43 KILX 280908 AAC
TAFDEC
TAF AMD
KDEC 280908Z 2809/2906 08005KT P6SM SCT040
     FM281100 14004KT 2SM BR BKN004 OVC012
     FM281500 27009KT 4SM BR BKN004 OVC015
     FM282100 27008KT P6SM SCT015 OVC045=



000
FTUS43 KILX 280906 AAC
TAFPIA
TAF AMD
KPIA 280906Z 2809/2906 11006KT P6SM BKN050
     FM281100 12005KT 2SM BR BKN006 OVC012
     FM281500 VRB05KT 4SM BR BKN006 OVC012
     FM281900 26009KT P6SM OVC025=



000
FTUS43 KILX 280742 AAA
TAFCMI
TAF AMD
KCMI 280742Z 2808/2906 09013KT P6SM -RA VCTS SCT006 OVC060CB
     FM281000 07012KT 2SM BR OVC004
     FM281200 10007KT 1/2SM FG VV002
     FM281500 27009KT 4SM BR OVC006
     FM282000 27012KT P6SM OVC025=



000
FTUS43 KILX 280728 AAB
TAFBMI
TAF AMD
KBMI 280728Z 2807/2906 04010KT 6SM BR VCSH OVC035
     FM281000 09008KT 1 1/2SM BR OVC003
     FM281500 04010KT 4SM BR OVC007
     FM282100 28007KT P6SM OVC015=



000
FTUS43 KILX 280703 AAB
TAFDEC
TAF AMD
KDEC 280703Z 2807/2906 25007KT P6SM VCTS BKN050CB
     FM280900 08005KT 2SM BR OVC004
     FM281500 27009KT 4SM BR BKN004 OVC015
     FM282100 27008KT P6SM SCT015 OVC045=



000
FTUS43 KILX 280701 AAB
TAFPIA
TAF AMD
KPIA 280701Z 2807/2906 10014KT 6SM -RA BR VCTS SCT006 BKN050CB
      TEMPO 2807/2809 3SM BR BKN006
     FM280900 11006KT 3SM BR OVC004
     FM281500 VRB05KT 6SM BR BKN006 OVC012
     FM281900 26009KT P6SM OVC025=



000
FTUS43 KILX 280637 AAA
TAFBMI
TAF AMD
KBMI 280637Z 2807/2906 09013KT 2SM TSRA BR OVC006CB
     FM280800 07015KT 1 1/2SM BR OVC003
     FM281500 04010KT 4SM BR OVC007
     FM282100 28007KT P6SM OVC015=



000
FTUS43 KILX 280621 AAA
TAFDEC
TAF AMD
KDEC 280621Z 2806/2906 09008KT 6SM BR VCTS SCT004 OVC090CB
      TEMPO 2806/2807 5SM -TSRA BR BKN015CB
     FM280700 11007KT 3SM BR VCSH OVC004
     FM281100 06007KT 1 1/2SM BR OVC002
     FM281500 27009KT 4SM BR BKN004 OVC015
     FM282100 27008KT P6SM SCT015 OVC045=



000
FTUS43 KILX 280604 AAA
TAFPIA
TAF AMD
KPIA 280604Z 2806/2906 09009KT 6SM BR VCTS OVC012CB
      TEMPO 2806/2807 VRB20G32KT 1SM +TSRA BR BKN006CB
     FM280700 08008KT 4SM BR OVC006
     FM281500 VRB05KT 6SM BR BKN006 OVC012
     FM281900 26009KT P6SM OVC025=



000
FTUS43 KILX 280537 CCA
TAFSPI
TAF COR
KSPI 280537Z 2806/2906 32013G25KT 6SM BR VCTS SCT015CB BKN045CB
     FM280700 12008KT 4SM BR BKN015
     FM281500 27009KT 6SM BR BKN020
     FM282100 27010KT P6SM BKN045=



000
FTUS43 KILX 280536
TAFPIA
TAF
KPIA 280536Z 2806/2906 09012KT 6SM BR VCTS OVC012CB
      TEMPO 2806/2807 3SM TSRA BR BKN006CB
     FM280700 08008KT 4SM BR OVC006
     FM281500 VRB05KT 6SM BR BKN006 OVC012
     FM281900 26009KT P6SM OVC025=



000
FTUS43 KILX 280536
TAFDEC
TAF
KDEC 280536Z 2806/2906 09008KT 4SM BR VCTS SCT004 OVC090CB
      TEMPO 2806/2807 3SM TSRA BR BKN004CB
     FM280700 11007KT 3SM BR VCSH OVC004
     FM281100 06007KT 1 1/2SM BR OVC002
     FM281500 27009KT 4SM BR BKN004 OVC015
     FM282100 27008KT P6SM SCT015 OVC045=



000
FTUS43 KILX 280536
TAFSPI
TAF
KSPI 280536Z 2806/2906 11010KT 6SM BR VCTS SCT005CB BKN025CB
      TEMPO 2806/2807 29012G24KT 4SM -SHRA BR BKN005
     FM280700 12008KT 4SM BR BKN015
     FM281500 27009KT 6SM BR BKN020
     FM282100 27010KT P6SM BKN045=



000
FTUS43 KILX 280536
TAFBMI
TAF
KBMI 280536Z 2806/2906 09013KT 4SM BR VCTS OVC006CB
      TEMPO 2807/2809 2SM -TSRA BR BKN003CB
     FM280900 07015KT 1 1/2SM BR OVC003
     FM281500 04010KT 4SM BR OVC007
     FM282100 28007KT P6SM OVC015=



000
FTUS43 KILX 280536
TAFCMI
TAF
KCMI 280536Z 2806/2906 09013KT 4SM BR VCTS OVC008CB
      TEMPO 2807/2809 2SM TSRA BR BKN004CB
     FM280900 07012KT 1SM BR OVC004
     FM281200 10007KT 1/2SM FG VV002
     FM281500 27009KT 3SM BR OVC006
     FM282000 27012KT P6SM OVC025=



000
FTUS43 KILX 280425 AAA
TAFSPI
TAF AMD
KSPI 280425Z 2804/2824 08006KT 6SM BR VCTS SCT005CB BKN050
      TEMPO 2804/2806 3SM TSRA BR BKN005CB
     FM280700 12008KT 4SM BR BKN015
     FM281500 27009KT 6SM BR BKN020=



000
FTUS43 KILX 280313 AAB
TAFCMI
TAF AMD
KCMI 280313Z 2803/2824 09013KT 4SM BR VCSH OVC008
      TEMPO 2803/2806 1 1/2SM -TSRA BR OVC006CB
     FM280700 11010KT 3SM BR OVC010
     FM281500 25009KT 5SM BR BKN015=



000
FTUS43 KILX 280305 CCA
TAFBMI
TAF COR
KBMI 280305Z 2803/2824 10016KT 5SM BR OVC008
     FM280400 09014G20KT P6SM VCSH OVC008
      TEMPO 2804/2806 4SM TSRA BR OVC005CB
     FM280600 08011KT 2SM BR OVC005
     FM281500 06010KT 4SM BR OVC010=



000
FTUS43 KILX 280305 CCA
TAFBMI
TAF COR
KBMI 280305Z 2803/2824 10016KT 5SM BR OVC008
     FM280400 09014G20KT P6SM VCSH OVC008
      TEMPO 2804/2806 4SM TSRA BR OVC005CB
     FM280600 08011KT 2SM BR OVC005
     FM281500 06010KT 4SM BR OVC010=



000
FTUS43 KILX 280304 AAB
TAFBMI
TAF AMD
KBMI 280304Z 2803/2824 08016KT 5SM BR OVC008
     FM280400 09014G20KT P6SM VCSH OVC008
      TEMPO 2804/2806 4SM TSRA BR OVC005CB
     FM280600 08011KT 2SM BR OVC005
     FM281500 06010KT 4SM BR OVC010=



000
FTUS43 KILX 280303 AAB
TAFDEC
TAF AMD
KDEC 280303Z 2803/2824 11013G20KT 3SM BR VCTS OVC004CB
      TEMPO 2804/2806 2SM TSRA BR OVC004CB
     FM280600 12009KT 4SM BR BKN015
     FM281500 27009KT 6SM BR BKN020=



000
FTUS43 KILX 280303 AAB
TAFDEC
TAF AMD
KDEC 280303Z 2803/2824 11013G20KT 3SM BR VCTS OVC004CB
      TEMPO 2804/2806 2SM TSRA BR OVC004CB
     FM280600 12009KT 4SM BR BKN015
     FM281500 27009KT 6SM BR BKN020=



000
FTUS43 KILX 280113 AAA
TAFDEC
TAF AMD
KDEC 280113Z 2801/2824 09012KT 4SM BR VCSH OVC005
      TEMPO 2801/2803 2SM TSRA BR OVC004CB
     FM280300 11013G20KT 4SM BR VCSH OVC015
     FM280600 12009KT 4SM BR BKN015
     FM281500 27009KT 6SM BR BKN020=



000
FTUS43 KILX 280113 AAA
TAFCMI
TAF AMD
KCMI 280113Z 2801/2824 09011KT 2SM -RA BR OVC007
     FM280200 09013KT 4SM BR VCSH OVC008
      TEMPO 2802/2806 4SM -TSRA BR OVC006CB
     FM280700 11010KT 3SM BR OVC010
     FM281500 25009KT 5SM BR BKN015=



000
FTUS43 KILX 280101 AAA
TAFBMI
TAF AMD
KBMI 280101Z 2801/2824 08016KT P6SM OVC013
     FM280400 09014G20KT P6SM VCSH OVC010
      TEMPO 2804/2806 4SM TSRA BR OVC009CB
     FM280600 08011KT 2SM BR OVC005
     FM281500 06010KT 4SM BR OVC010=



000
FTUS43 KILX 280101 AAA
TAFBMI
TAF AMD
KBMI 280101Z 2801/2824 08016KT P6SM OVC013
     FM280400 09014G20KT P6SM VCSH OVC010
      TEMPO 2804/2806 4SM TSRA BR OVC009CB
     FM280600 08011KT 2SM BR OVC005
     FM281500 06010KT 4SM BR OVC010=



000
FTUS43 KILX 280059 AAA
TAFPIA
TAF AMD
KPIA 280059Z 2801/2824 09012G20KT 6SM HZ OVC011
     FM280400 08011G20KT 4SM BR VCTS OVC010CB
      TEMPO 2804/2806 4SM -TSRA BR OVC006CB
     FM280700 08008KT 2SM BR OVC005
     FM281500 06006KT 4SM BR OVC010=



000
FTUS43 KILX 280059 AAA
TAFPIA
TAF AMD
KPIA 280059Z 2801/2824 09012G20KT 6SM HZ OVC011
     FM280400 08011G20KT 4SM BR VCTS OVC010CB
      TEMPO 2804/2806 4SM -TSRA BR OVC006CB
     FM280700 08008KT 2SM BR OVC005
     FM281500 06006KT 4SM BR OVC010=



000
FTUS43 KILX 272354
TAFSPI
TAF
KSPI 272354Z 2800/2824 08010KT 2SM BR OVC005
     FM280100 10010KT 4SM BR VCTS OVC005CB
      TEMPO 2801/2803 4SM TSRA BR OVC004CB
     FM280500 12008KT 4SM BR BKN015
     FM281500 27009KT 6SM BR BKN020=



000
FTUS43 KILX 272354
TAFDEC
TAF
KDEC 272354Z 2800/2824 09012KT 4SM BR VCSH OVC008
      TEMPO 2800/2802 2SM TSRA BR OVC006CB
     FM280200 11013G20KT 4SM BR VCSH OVC015
     FM280600 12009KT 4SM BR BKN015
     FM281500 27009KT 6SM BR BKN020=



000
FTUS43 KILX 272354
TAFCMI
TAF
KCMI 272354Z 2800/2824 09011KT 2SM -RA BR OVC007
     FM280200 09013KT 4SM BR VCSH OVC008
      TEMPO 2803/2806 4SM -TSRA BR OVC006CB
     FM280700 11010KT 3SM BR OVC010
     FM281500 25009KT 5SM BR BKN015=



000
FTUS43 KILX 272354
TAFSPI
TAF
KSPI 272354Z 2800/2824 08010KT 2SM BR OVC005
     FM280100 10010KT 4SM BR VCTS OVC005CB
      TEMPO 2801/2803 4SM TSRA BR OVC004CB
     FM280500 12008KT 4SM BR BKN015
     FM281500 27009KT 6SM BR BKN020=



000
FTUS43 KILX 272354
TAFPIA
TAF
KPIA 272354Z 2800/2824 08016G22KT 6SM HZ OVC014
     FM280100 08011G20KT 4SM BR VCTS OVC010CB
      TEMPO 2802/2804 4SM TSRA BR OVC006CB
     FM280500 08008KT 2SM BR OVC005
     FM281500 06006KT 4SM BR OVC010=



000
FTUS43 KILX 272354
TAFBMI
TAF
KBMI 272354Z 2800/2824 08016KT 3SM BR VCSH OVC009
      TEMPO 2802/2804 4SM TSRA BR OVC009CB
     FM280500 08011KT 2SM BR OVC005
     FM281500 06010KT 4SM BR OVC010=



000
FTUS43 KILX 272354
TAFPIA
TAF
KPIA 272354Z 2800/2824 08016G22KT 6SM HZ OVC014
     FM280100 08011G20KT 4SM BR VCTS OVC010CB
      TEMPO 2802/2804 4SM TSRA BR OVC006CB
     FM280500 08008KT 2SM BR OVC005
     FM281500 06006KT 4SM BR OVC010=



000
FTUS43 KILX 272354
TAFBMI
TAF
KBMI 272354Z 2800/2824 08016KT 3SM BR VCSH OVC009
      TEMPO 2802/2804 4SM TSRA BR OVC009CB
     FM280500 08011KT 2SM BR OVC005
     FM281500 06010KT 4SM BR OVC010=



000
FTUS43 KILX 272354
TAFDEC
TAF
KDEC 272354Z 2800/2824 09012KT 4SM BR VCSH OVC008
      TEMPO 2800/2802 2SM TSRA BR OVC006CB
     FM280200 11013G20KT 4SM BR VCSH OVC015
     FM280600 12009KT 4SM BR BKN015
     FM281500 27009KT 6SM BR BKN020=



000
FTUS43 KILX 272354
TAFCMI
TAF
KCMI 272354Z 2800/2824 09011KT 2SM -RA BR OVC007
     FM280200 09013KT 4SM BR VCSH OVC008
      TEMPO 2803/2806 4SM -TSRA BR OVC006CB
     FM280700 11010KT 3SM BR OVC010
     FM281500 25009KT 5SM BR BKN015=



000
FTUS43 KILX 272305 AAA
TAFDEC
TAF AMD
KDEC 272305Z 2723/2818 09012KT 4SM BR VCSH OVC008
      TEMPO 2800/2802 2SM TSRA BR OVC006CB
     FM280200 11013G20KT 4SM BR VCSH OVC015
     FM280600 12009KT 4SM BR BKN015
     FM281500 27009KT 6SM BR BKN020=



000
FTUS43 KILX 272304 AAB
TAFCMI
TAF AMD
KCMI 272304Z 2723/2818 09011KT 2SM -RA BR OVC007
     FM280200 09013KT 4SM BR VCSH OVC015
     FM280700 11010KT 3SM BR OVC010
     FM281500 25009KT 5SM BR BKN015=



000
FTUS43 KILX 272303 AAB
TAFSPI
TAF AMD
KSPI 272303Z 2723/2818 08010KT 2SM BR OVC005
     FM280100 10010KT 4SM BR VCSH BKN015
     FM280500 12008KT 4SM BR BKN015
     FM281500 27009KT 6SM BR BKN020=



000
FTUS43 KILX 272131 AAC
TAFBMI
TAF AMD
KBMI 272131Z 2722/2818 07015KT 2SM BR VCSH BKN007 OVC011
      TEMPO 2722/2801 4SM -SHRA BR OVC009
     FM280200 07012G18KT 4SM BR VCSH OVC004
     FM280500 08011KT 2SM BR OVC005
     FM281500 06010KT 4SM BR OVC010=



000
FTUS43 KILX 272107 AAA
TAFPIA
TAF AMD
KPIA 272107Z 2721/2818 08015G22KT 4SM BR VCSH OVC015
      TEMPO 2721/2723 5SM -SHRA BR OVC009
     FM280100 08011G20KT 4SM BR VCSH OVC007
     FM280500 08008KT 2SM BR OVC005
     FM281500 06006KT 4SM BR OVC010=



000
FTUS43 KILX 272107 AAA
TAFPIA
TAF AMD
KPIA 272107Z 2721/2818 08015G22KT 4SM BR VCSH OVC015
      TEMPO 2721/2723 5SM -SHRA BR OVC009
     FM280100 08011G20KT 4SM BR VCSH OVC007
     FM280500 08008KT 2SM BR OVC005
     FM281500 06006KT 4SM BR OVC010=



000
FTUS43 KILX 272106 AAB
TAFBMI
TAF AMD
KBMI 272106Z 2721/2818 07014G22KT 4SM -TSRA BR SCT006 OVC012CB
      TEMPO 2721/2722 2SM TSRA BR BKN007CB
     FM272200 08015G22KT 6SM BR VCSH OVC015
      TEMPO 2722/2801 4SM -SHRA BR OVC009
     FM280200 07012G18KT 4SM BR VCSH OVC004
     FM280500 08011KT 2SM BR OVC005
     FM281500 06010KT 4SM BR OVC010=



000
FTUS43 KILX 272023 AAA
TAFCMI
TAF AMD
KCMI 272023Z 2720/2818 09015G23KT 4SM BR VCSH OVC012
      TEMPO 2720/2722 6SM -SHRA OVC008
     FM272200 09015G21KT 6SM -SHRA BR OVC015
      TEMPO 2722/2724 4SM TSRA BR OVC009CB
     FM280200 09013KT 4SM BR VCSH OVC015
     FM280700 11010KT 3SM BR OVC010
     FM281500 25009KT 5SM BR BKN015=



000
FTUS43 KILX 272022 AAA
TAFSPI
TAF AMD
KSPI 272022Z 2720/2818 06010G18KT 2SM BR VCSH BKN005 OVC010
      TEMPO 2720/2722 5SM BR OVC010
     FM272200 09010G17KT 6SM BR SCT007 BKN015
     FM280100 10010KT 4SM BR VCSH BKN015
     FM280500 12008KT 4SM BR BKN015
     FM281500 27009KT 6SM BR BKN020=



000
FTUS43 KILX 272020 AAA
TAFBMI
TAF AMD
KBMI 272020Z 2720/2818 08016G23KT 6SM BR VCTS OVC013CB
      TEMPO 2720/2721 3SM TSRA BR BKN008CB
     FM272100 08015G22KT 6SM BR VCSH OVC015
      TEMPO 2721/2801 4SM -SHRA BR OVC009
     FM280200 07012G18KT 4SM BR VCSH OVC004
     FM280500 08011KT 2SM BR OVC005
     FM281500 06010KT 4SM BR OVC010=



000
FTUS43 KILX 271740
TAFDEC
TAF
KDEC 271740Z 2718/2818 10014G22KT 2SM -SHRA BR OVC006
      TEMPO 2718/2720 4SM SHRA BR OVC010
     FM272000 11015G20KT 5SM BR VCTS SCT007CB OVC012
      TEMPO 2720/2723 3SM TSRA BR OVC007CB
     FM280200 11013G20KT 4SM BR VCSH OVC015
     FM280600 12009KT 4SM BR BKN015
     FM281500 27009KT 6SM BR BKN020=



000
FTUS43 KILX 271740
TAFPIA
TAF
KPIA 271740Z 2718/2818 09016G22KT 4SM -SHRA BR OVC010
      TEMPO 2718/2720 6SM -SHRA BR OVC007
     FM272000 09014G23KT 4SM BR VCSH SCT007 OVC015
      TEMPO 2720/2723 4SM TSRA BR BKN006CB
     FM280100 08011G20KT 4SM BR VCSH OVC007
     FM280500 08008KT 2SM BR OVC005
     FM281500 06006KT 4SM BR OVC010=



000
FTUS43 KILX 271740
TAFCMI
TAF
KCMI 271740Z 2718/2818 09016G24KT 6SM -SHRA BR VCSH OVC012
      TEMPO 2718/2720 3SM SHRA OVC008
     FM272000 10015G23KT 6SM -SHRA BR VCTS SCT008 OVC015CB
      TEMPO 2721/2724 3SM TSRA BR OVC008CB
     FM280200 09013KT 4SM BR VCSH OVC015
     FM280700 11010KT 3SM BR OVC010
     FM281500 25009KT 5SM BR BKN015=



000
FTUS43 KILX 271740
TAFSPI
TAF
KSPI 271740Z 2718/2818 09014G22KT 1 1/2SM BR VCTS OVC003CB
      TEMPO 2718/2720 3SM TSRA BR OVC008CB
     FM272000 10014G22KT 3SM BR VCSH OVC008
      TEMPO 2720/2723 6SM -SHRA BR OVC012
     FM280100 10010KT 4SM BR VCSH OVC015
     FM280500 12008KT 4SM BR BKN015
     FM281500 27009KT 6SM BR BKN020=



000
FTUS43 KILX 271740
TAFBMI
TAF
KBMI 271740Z 2718/2818 09017G23KT 6SM -SHRA BR OVC012
      TEMPO 2718/2719 3SM SHRA BR OVC008
     FM271900 11017G23KT 3SM BR VCSH OVC007
      TEMPO 2720/2723 1 1/2SM TSRA BR BKN004CB
     FM280200 07012G18KT 4SM BR VCSH OVC004
     FM280500 08011KT 2SM BR OVC005
     FM281500 06010KT 4SM BR OVC010=



000
FTUS43 KILX 271714 AAB
TAFCMI
TAF AMD
KCMI 271714Z 2717/2812 09016G24KT 6SM -SHRA BR VCSH OVC012
      TEMPO 2717/2719 3SM SHRA OVC008
     FM271900 10015G23KT 6SM -SHRA BR VCTS SCT007 OVC015CB
      TEMPO 2721/2724 3SM TSRA BR OVC007CB
     FM280200 09013KT 4SM BR VCTS OVC015CB
     FM280700 11010KT 5SM BR SCT006 BKN020=



000
FTUS43 KILX 271712 AAD
TAFDEC
TAF AMD
KDEC 271712Z 2717/2812 10015G22KT 2SM -SHRA BR OVC006
      TEMPO 2717/2719 3SM -SHRA BR OVC010
     FM271900 11015G20KT 4SM BR VCTS SCT006CB OVC012
      TEMPO 2719/2723 2SM TSRA BR OVC006CB
     FM280200 11013G20KT 4SM BR VCTS OVC015CB
     FM280600 12010KT 6SM BR BKN035=



000
FTUS43 KILX 271712 AAD
TAFDEC
TAF AMD
KDEC 271712Z 2717/2812 10015G22KT 2SM -SHRA BR OVC006
      TEMPO 2717/2719 3SM -SHRA BR OVC010
     FM271900 11015G20KT 4SM BR VCTS SCT006CB OVC012
      TEMPO 2719/2723 2SM TSRA BR OVC006CB
     FM280200 11013G20KT 4SM BR VCTS OVC015CB
     FM280600 12010KT 6SM BR BKN035=



000
FTUS43 KILX 271711 AAB
TAFSPI
TAF AMD
KSPI 271711Z 2717/2812 09014G22KT 1 1/2SM BR VCSH OVC003
      TEMPO 2717/2718 3SM -SHRA BR OVC008
     FM271800 11014G20KT 3SM BR VCTS SCT005CB OVC010
      TEMPO 2719/2723 2SM TSRA BR OVC005CB
     FM280100 10013G20KT 4SM BR VCTS OVC015CB
     FM280500 12010KT 6SM BR BKN035=



000
FTUS43 KILX 271710 AAC
TAFPIA
TAF AMD
KPIA 271710Z 2717/2812 09016G22KT 4SM -SHRA BR OVC010
      TEMPO 2717/2719 6SM -SHRA BR OVC007
     FM271900 09013G23KT 4SM BR VCSH SCT007 OVC015
      TEMPO 2720/2723 4SM TSRA BR BKN006CB
     FM280100 08011G20KT 4SM BR VCSH OVC007
     FM280500 08009KT 5SM BR OVC007=



000
FTUS43 KILX 271709 AAB
TAFBMI
TAF AMD
KBMI 271709Z 2717/2812 09017G23KT 6SM -SHRA BR OVC010
      TEMPO 2717/2719 3SM SHRA BR OVC008
     FM271900 11017G23KT 3SM BR VCSH OVC007
      TEMPO 2720/2723 1 1/2SM TSRA BR BKN004CB
     FM280200 07012G18KT 4SM BR VCTS OVC004CB
     FM280500 08012KT 4SM BR OVC007=



000
FTUS43 KILX 271709 AAB
TAFBMI
TAF AMD
KBMI 271709Z 2717/2812 09017G23KT 6SM -SHRA BR OVC010
      TEMPO 2717/2719 3SM SHRA BR OVC008
     FM271900 11017G23KT 3SM BR VCSH OVC007
      TEMPO 2720/2723 1 1/2SM TSRA BR BKN004CB
     FM280200 07012G18KT 4SM BR VCTS OVC004CB
     FM280500 08012KT 4SM BR OVC007=



000
FTUS43 KILX 271515 AAC
TAFDEC
TAF AMD
KDEC 271515Z 2715/2812 09016G22KT 1 1/2SM BR VCSH OVC004
      TEMPO 2715/2718 3SM -SHRA BR OVC007
     FM271800 11014G20KT 2SM BR VCTS SCT006CB OVC012
      TEMPO 2719/2723 2SM TSRA BR OVC006CB
     FM280200 10013G20KT 4SM BR VCTS OVC015CB
     FM280600 12010KT 6SM BR BKN035=



000
FTUS43 KILX 271515 AAA
TAFCMI
TAF AMD
KCMI 271515Z 2715/2812 08016G24KT 4SM BR VCSH OVC010
      TEMPO 2715/2719 6SM -SHRA OVC006
     FM271900 10014G23KT 5SM -SHRA BR VCTS SCT006 OVC012CB
      TEMPO 2721/2724 2SM TSRA BR OVC006CB
     FM280200 09013KT 4SM BR VCTS OVC015CB
     FM280700 11010KT 5SM BR SCT006 BKN020=



000
FTUS43 KILX 271514 AAA
TAFSPI
TAF AMD
KSPI 271514Z 2715/2812 09012G22KT 1SM BR VCSH OVC004
      TEMPO 2715/2717 3SM -SHRA BR OVC007
     FM271700 11014G20KT 3SM BR VCTS SCT006CB OVC012
      TEMPO 2719/2723 1 1/2SM TSRA BR OVC006CB
     FM280100 10013G20KT 4SM BR VCTS OVC015CB
     FM280500 12010KT 6SM BR BKN035=



000
FTUS43 KILX 271513 AAA
TAFBMI
TAF AMD
KBMI 271513Z 2715/2812 10017G23KT 3SM BR VCSH OVC004
      TEMPO 2715/2719 5SM -SHRA BR OVC007
     FM271900 11017G23KT 3SM BR VCSH OVC007
      TEMPO 2720/2723 1 1/2SM TSRA BR BKN004CB
     FM280200 07012G18KT 4SM BR VCTS OVC004CB
     FM280500 08012KT 4SM BR OVC007=



000
FTUS43 KILX 271502 AAB
TAFPIA
TAF AMD
KPIA 271502Z 2715/2812 09014G22KT 3SM BR VCSH OVC004
      TEMPO 2715/2718 5SM -SHRA BR OVC007
     FM271800 09013G23KT 4SM BR VCSH SCT007 OVC015
      TEMPO 2720/2723 4SM TSRA BR BKN006CB
     FM280100 08011G20KT 4SM BR VCSH OVC007
     FM280500 08009KT 5SM BR OVC007=



000
FTUS43 KILX 271248 AAA
TAFPIA
TAF AMD
KPIA 271248Z 2713/2812 07014G22KT 3SM BR OVC008
     FM271400 09015G23KT 2SM -RA BR VCTS BKN006CB OVC012
     FM271800 09013G23KT 4SM BR VCSH SCT007 OVC015
      TEMPO 2720/2723 4SM TSRA BR BKN006CB
     FM280100 08011G20KT 4SM BR VCSH OVC007
     FM280500 08009KT 5SM BR OVC007=



000
FTUS43 KILX 271248 AAA
TAFPIA
TAF AMD
KPIA 271248Z 2713/2812 07014G22KT 3SM BR OVC008
     FM271400 09015G23KT 2SM -RA BR VCTS BKN006CB OVC012
     FM271800 09013G23KT 4SM BR VCSH SCT007 OVC015
      TEMPO 2720/2723 4SM TSRA BR BKN006CB
     FM280100 08011G20KT 4SM BR VCSH OVC007
     FM280500 08009KT 5SM BR OVC007=



000
FTUS43 KILX 271247 AAB
TAFDEC
TAF AMD
KDEC 271247Z 2713/2812 09015G22KT 1 1/2SM BR OVC006
     FM271400 09014G22KT 2SM -SHRA BR VCTS OVC006CB
     FM271800 11014G20KT 2SM BR VCTS SCT006CB OVC012
      TEMPO 2719/2723 2SM TSRA BR OVC006CB
     FM280200 10013G20KT 4SM BR VCTS OVC015CB
     FM280600 12010KT 6SM BR BKN035=



000
FTUS43 KILX 271247 AAB
TAFDEC
TAF AMD
KDEC 271247Z 2713/2812 09015G22KT 1 1/2SM BR OVC006
     FM271400 09014G22KT 2SM -SHRA BR VCTS OVC006CB
     FM271800 11014G20KT 2SM BR VCTS SCT006CB OVC012
      TEMPO 2719/2723 2SM TSRA BR OVC006CB
     FM280200 10013G20KT 4SM BR VCTS OVC015CB
     FM280600 12010KT 6SM BR BKN035=



000
FTUS43 KILX 271135 AAA
TAFDEC
TAF AMD
KDEC 271135Z 2712/2812 09015G22KT 4SM BR OVC006
     FM271400 09014G22KT 4SM -SHRA BR VCTS OVC006CB
     FM271800 11014G20KT 2SM BR VCTS SCT006CB OVC012
      TEMPO 2719/2723 2SM TSRA BR OVC006CB
     FM280200 10013G20KT 4SM BR VCTS OVC015CB
     FM280600 12010KT 6SM BR BKN035=



000
FTUS43 KILX 271135 CCA
TAFSPI
TAF COR
KSPI 271135Z 2712/2812 09015G22KT 4SM BR OVC004
     FM271300 09014G22KT 4SM -SHRA BR VCTS OVC007CB
     FM271700 11014G20KT 3SM BR VCTS SCT006CB OVC012
      TEMPO 2719/2723 1 1/2SM TSRA BR OVC006CB
     FM280100 10013G20KT 4SM BR VCTS OVC015CB
     FM280500 12010KT 6SM BR BKN035=



000
FTUS43 KILX 271134
TAFPIA
TAF
KPIA 271134Z 2712/2812 07014G22KT 4SM BR OVC008
     FM271500 09015G23KT 4SM -RA BR VCTS BKN006CB OVC012
     FM271800 09013G23KT 4SM BR VCSH SCT007 OVC015
      TEMPO 2720/2723 4SM TSRA BR BKN006CB
     FM280100 08011G20KT 4SM BR VCSH OVC007
     FM280500 08009KT 5SM BR OVC007=



000
FTUS43 KILX 271134
TAFDEC
TAF
KDEC 271134Z 2712/2812 10015G22KT 4SM BR OVC004
     FM271400 09014G22KT 4SM -SHRA BR VCTS OVC007CB
     FM271800 11014G20KT 2SM BR VCTS SCT006CB OVC012
      TEMPO 2719/2723 2SM TSRA BR OVC006CB
     FM280200 10013G20KT 4SM BR VCTS OVC015CB
     FM280600 12010KT 6SM BR BKN035=



000
FTUS43 KILX 271134
TAFCMI
TAF
KCMI 271134Z 2712/2812 07015G22KT 4SM BR OVC006
     FM271800 10014G23KT 5SM -SHRA BR VCTS SCT006 OVC012CB
      TEMPO 2721/2724 2SM TSRA BR OVC006CB
     FM280200 09013KT 4SM BR VCTS OVC015CB
     FM280700 11010KT 5SM BR SCT006 BKN020=



000
FTUS43 KILX 271134
TAFBMI
TAF
KBMI 271134Z 2712/2812 07015KT 3/4SM BR OVC002
     FM271500 09017G23KT 4SM -RA BR VCTS BKN004CB OVC010
     FM271900 11017G23KT 3SM BR VCSH OVC007
      TEMPO 2720/2723 1 1/2SM TSRA BR BKN004CB
     FM280200 07012G18KT 4SM BR VCTS OVC004CB
     FM280500 08012KT 4SM BR OVC007=



000
FTUS43 KILX 271134
TAFSPI
TAF
KSPI 271134Z 2712/2812 10015G22KT 4SM BR OVC004
     FM271300 09014G22KT 4SM -SHRA BR VCTS OVC007CB
     FM271700 11014G20KT 3SM BR VCTS SCT006CB OVC012
      TEMPO 2719/2723 1 1/2SM TSRA BR OVC006CB
     FM280100 10013G20KT 4SM BR VCTS OVC015CB
     FM280500 12010KT 6SM BR BKN035=



000
FTUS43 KILX 271056 AAA
TAFBMI
TAF AMD
KBMI 271056Z 2711/2806 07015KT 3/4SM BR OVC002
     FM271500 10017G23KT 3SM SHRA BR SCT005 OVC010
      TEMPO 2715/2718 2SM TSRA BR OVC005CB
     FM271900 12017G23KT P6SM VCSH SCT015 OVC025
      TEMPO 2719/2721 5SM SHRA BR BKN015
     FM280200 08012G18KT 3SM -TSRA BR OVC010CB
      TEMPO 2802/2804 3/4SM +TSRA BR OVC003CB
     FM280500 08013KT 4SM BR VCSH OVC008=



000
FTUS43 KILX 270658 AAA
TAFDEC
TAF AMD
KDEC 270658Z 2707/2806 06016KT 4SM BR OVC007
     FM271300 10015G22KT 4SM SHRA BR SCT007 OVC012
      TEMPO 2714/2718 2SM TSRA BR OVC007CB
     FM271800 14014G20KT P6SM VCSH SCT020 BKN030
      TEMPO 2718/2722 5SM SHRA BR BKN020
     FM280200 10014G20KT 3SM -TSRA BR OVC010CB
      TEMPO 2802/2804 3/4SM +TSRA BR OVC008CB
     FM280500 07013KT 4SM BR VCSH OVC015=



000
FTUS43 KILX 270657 AAA
TAFSPI
TAF AMD
KSPI 270657Z 2707/2806 07014KT 5SM BR OVC007
     FM271200 10015G22KT 4SM SHRA BR SCT007 OVC010
      TEMPO 2714/2717 2SM TSRA BR OVC007CB
     FM271700 14014G20KT P6SM VCSH SCT020 BKN030
      TEMPO 2717/2719 5SM SHRA BR BKN020
     FM280100 10013G20KT 3SM -TSRA BR OVC010CB
      TEMPO 2801/2803 3/4SM +TSRA BR OVC006CB
     FM280400 05010KT 4SM BR VCSH OVC015=



000
FTUS43 KILX 270521
TAFDEC
TAF
KDEC 270521Z 2706/2806 03010KT P6SM OVC200
     FM270800 06013KT 6SM BR BKN015
     FM271300 10015G22KT 4SM SHRA BR SCT007 OVC012
      TEMPO 2714/2718 2SM TSRA BR OVC007CB
     FM271800 14014G20KT P6SM VCSH SCT020 BKN030
      TEMPO 2718/2722 5SM SHRA BR BKN020
     FM280200 10014G20KT 3SM -TSRA BR OVC010CB
      TEMPO 2802/2804 3/4SM +TSRA BR OVC008CB
     FM280500 07013KT 4SM BR VCSH OVC015=



000
FTUS43 KILX 270521
TAFPIA
TAF
KPIA 270521Z 2706/2806 07017KT P6SM BKN014
     FM271500 10015G20KT 4SM SHRA BR SCT007 OVC015
      TEMPO 2715/2718 2SM TSRA BR OVC007CB
     FM271800 11013G18KT P6SM VCSH SCT015 OVC025
      TEMPO 2718/2720 4SM SHRA BR BKN015
     FM280100 08011G20KT 3SM -TSRA BR OVC010CB
      TEMPO 2801/2803 3/4SM +TSRA BR OVC004CB
     FM280400 08011KT 4SM BR VCSH OVC008=



000
FTUS43 KILX 270521
TAFSPI
TAF
KSPI 270521Z 2706/2806 06010KT P6SM OVC200
     FM270800 07014KT P6SM BKN015
     FM271200 10015G22KT 4SM SHRA BR SCT007 OVC010
      TEMPO 2714/2717 2SM TSRA BR OVC007CB
     FM271700 14014G20KT P6SM VCSH SCT020 BKN030
      TEMPO 2717/2719 5SM SHRA BR BKN020
     FM280100 10013G20KT 3SM -TSRA BR OVC010CB
      TEMPO 2801/2803 3/4SM +TSRA BR OVC006CB
     FM280400 05010KT 4SM BR VCSH OVC015=



000
FTUS43 KILX 270521
TAFBMI
TAF
KBMI 270521Z 2706/2806 05018KT 4SM BR OVC006
     FM270800 07015KT 3SM BR OVC004
     FM271500 10017G23KT 3SM SHRA BR SCT005 OVC010
      TEMPO 2715/2718 2SM TSRA BR OVC005CB
     FM271900 12017G23KT P6SM VCSH SCT015 OVC025
      TEMPO 2719/2721 5SM SHRA BR BKN015
     FM280200 08012G18KT 3SM -TSRA BR OVC010CB
      TEMPO 2802/2804 3/4SM +TSRA BR OVC003CB
     FM280500 08013KT 4SM BR VCSH OVC008=



000
FTUS43 KILX 270521
TAFCMI
TAF
KCMI 270521Z 2706/2806 04012G20KT P6SM OVC200
     FM270700 06015KT 6SM BR OVC015
     FM271600 10016G22KT 4SM SHRA BR SCT007 OVC010
      TEMPO 2717/2719 2SM TSRA BR OVC007CB
     FM271900 11016G21KT P6SM VCSH SCT015 OVC025
      TEMPO 2719/2721 4SM SHRA BR BKN015
     FM280300 09013G20KT 3SM -TSRA BR OVC010CB
      TEMPO 2803/2805 3/4SM +TSRA BR OVC006CB=



000
FTUS43 KILX 270401 AAD
TAFBMI
TAF AMD
KBMI 270401Z 2704/2724 05018KT 4SM BR OVC006
     FM270600 07015KT 3SM BR OVC005
     FM271400 10017G23KT 3SM SHRA BR SCT005 OVC012
      TEMPO 2714/2718 2SM TSRA BR OVC005CB
     FM271900 12017G23KT P6SM VCSH SCT015 OVC025
      TEMPO 2719/2723 4SM SHRA BR BKN015=



000
FTUS43 KILX 270345 AAB
TAFPIA
TAF AMD
KPIA 270345Z 2704/2724 07017KT P6SM BKN014
     FM270600 07016KT 6SM BR OVC012
     FM271400 10015G20KT 4SM SHRA BR SCT007 OVC015
      TEMPO 2714/2718 2SM TSRA BR OVC007CB
     FM271800 11013G18KT P6SM VCSH SCT015 OVC025
      TEMPO 2718/2722 4SM SHRA BR BKN015=



000
FTUS43 KILX 270326 AAC
TAFBMI
TAF AMD
KBMI 270326Z 2703/2724 06017KT 6SM BR BKN008 BKN040
     FM270600 07015KT 5SM BR OVC008
     FM271400 10017G23KT 3SM SHRA BR SCT005 OVC012
      TEMPO 2714/2718 2SM TSRA BR OVC005CB
     FM271900 12017G23KT P6SM VCSH SCT015 OVC025
      TEMPO 2719/2723 4SM SHRA BR BKN015=



    US Dept of Commerce
    National Oceanic and Atmospheric Administration
    National Weather Service
    1325 East West Highway
    Silver Spring, MD 20910
    Page Author: NWS Internet Services Team
Disclaimer
Information Quality
Credits
Glossary
Privacy Policy
Freedom of Information Act (FOIA)
About Us
Career Opportunities